createdAt,value
2019-05-25T00:00:12.933Z,83.837891
2019-05-25T00:01:22.479Z,83.630371
2019-05-25T00:02:32.001Z,83.630371
2019-05-25T00:03:41.532Z,83.465576
2019-05-25T00:04:51.083Z,83.673096
2019-05-25T00:06:00.642Z,83.776855
2019-05-25T00:07:10.176Z,83.776855
2019-05-25T00:08:19.696Z,83.673096
2019-05-25T00:09:29.204Z,83.36792
2019-05-25T00:10:38.777Z,83.36792
2019-05-25T00:11:48.301Z,83.36792
2019-05-25T00:12:57.838Z,82.653809
2019-05-25T00:14:07.363Z,82.751465
2019-05-25T00:15:16.915Z,82.550049
2019-05-25T00:16:26.439Z,82.751465
2019-05-25T00:17:35.974Z,82.751465
2019-05-25T00:18:45.506Z,82.855225
2019-05-25T00:19:55.059Z,83.099365
2019-05-25T00:21:04.586Z,83.813477
2019-05-25T00:22:14.105Z,83.709717
2019-05-25T00:23:23.621Z,83.709717
2019-05-25T00:24:33.147Z,83.813477
2019-05-25T00:25:42.710Z,84.118652
2019-05-25T00:26:52.246Z,84.014893
2019-05-25T00:28:01.777Z,84.161377
2019-05-25T00:29:11.316Z,84.161377
2019-05-25T00:30:20.855Z,84.161377
2019-05-25T00:31:30.383Z,84.259033
2019-05-25T00:32:39.909Z,84.570312
2019-05-25T00:33:49.436Z,84.570312
2019-05-25T00:34:59.003Z,85.076904
2019-05-25T00:36:08.532Z,85.321045
2019-05-25T00:37:18.048Z,85.72998
2019-05-25T00:38:28.603Z,85.9375
2019-05-25T00:39:39.123Z,86.138916
2019-05-25T00:40:48.677Z,86.444092
2019-05-25T00:41:58.219Z,86.547852
2019-05-25T00:43:07.751Z,86.651611
2019-05-25T00:44:18.283Z,86.755371
2019-05-25T00:45:27.837Z,86.444092
2019-05-25T00:46:38.356Z,86.755371
2019-05-25T00:47:47.880Z,87.164307
2019-05-25T00:48:57.426Z,86.755371
2019-05-25T00:50:06.980Z,86.651611
2019-05-25T00:51:16.513Z,86.853027
2019-05-25T00:52:26.030Z,86.651611
2019-05-25T00:53:35.588Z,86.853027
2019-05-25T00:54:45.116Z,86.999512
2019-05-25T00:55:54.679Z,86.791992
2019-05-25T00:57:04.199Z,86.999512
2019-05-25T00:58:13.719Z,87.200928
2019-05-25T00:59:23.257Z,87.408447
2019-05-25T01:00:32.804Z,87.609863
2019-05-25T01:01:42.341Z,88.061523
2019-05-25T01:02:51.931Z,88.262939
2019-05-25T01:04:01.422Z,87.957764
2019-05-25T01:05:11.021Z,87.445068
2019-05-25T01:06:20.533Z,87.548828
2019-05-25T01:07:30.056Z,87.756348
2019-05-25T01:08:39.596Z,87.139893
2019-05-25T01:09:49.119Z,87.243652
2019-05-25T01:10:59.642Z,88.262939
2019-05-25T01:12:09.170Z,87.957764
2019-05-25T01:13:18.704Z,87.548828
2019-05-25T01:14:28.224Z,87.036133
2019-05-25T01:15:37.790Z,86.834717
2019-05-25T01:16:47.356Z,86.529541
2019-05-25T01:17:56.894Z,86.834717
2019-05-25T01:19:06.430Z,87.139893
2019-05-25T01:20:16.057Z,87.286377
2019-05-25T01:21:25.615Z,87.384033
2019-05-25T01:22:35.136Z,87.286377
2019-05-25T01:23:44.662Z,87.487793
2019-05-25T01:24:54.187Z,87.487793
2019-05-25T01:26:03.746Z,87.591553
2019-05-25T01:27:13.260Z,87.487793
2019-05-25T01:28:22.793Z,87.591553
2019-05-25T01:29:32.316Z,87.835693
2019-05-25T01:30:41.913Z,88.043213
2019-05-25T01:31:51.420Z,87.939453
2019-05-25T01:33:00.978Z,88.452148
2019-05-25T01:34:10.506Z,88.757324
2019-05-25T01:35:20.047Z,88.452148
2019-05-25T01:36:29.593Z,88.653564
2019-05-25T01:37:39.271Z,87.939453
2019-05-25T01:38:48.651Z,87.322998
2019-05-25T01:39:58.235Z,87.530518
2019-05-25T01:41:07.794Z,87.219238
2019-05-25T01:42:17.339Z,86.914062
2019-05-25T01:43:26.930Z,86.712646
2019-05-25T01:44:36.459Z,86.608887
2019-05-25T01:45:46.024Z,86.608887
2019-05-25T01:46:55.590Z,86.303711
2019-05-25T01:48:05.147Z,87.121582
2019-05-25T01:49:14.675Z,87.219238
2019-05-25T01:50:24.208Z,86.810303
2019-05-25T01:51:33.780Z,86.914062
2019-05-25T01:52:43.313Z,86.810303
2019-05-25T01:53:52.832Z,87.121582
2019-05-25T01:55:02.344Z,86.712646
2019-05-25T01:56:11.904Z,86.608887
2019-05-25T01:57:21.488Z,86.853027
2019-05-25T01:58:30.999Z,87.158203
2019-05-25T01:59:40.514Z,87.878418
2019-05-25T02:00:50.110Z,87.982178
2019-05-25T02:01:59.635Z,88.183594
2019-05-25T02:03:09.150Z,88.183594
2019-05-25T02:04:18.658Z,88.183594
2019-05-25T02:05:28.188Z,88.696289
2019-05-25T02:06:37.739Z,89.001465
2019-05-25T02:07:47.280Z,88.903809
2019-05-25T02:08:56.813Z,88.592529
2019-05-25T02:10:06.323Z,88.555908
2019-05-25T02:11:15.889Z,88.452148
2019-05-25T02:12:25.403Z,88.555908
2019-05-25T02:13:34.922Z,88.452148
2019-05-25T02:14:44.456Z,88.244629
2019-05-25T02:15:54.012Z,88.348389
2019-05-25T02:17:03.551Z,88.348389
2019-05-25T02:18:13.080Z,88.140869
2019-05-25T02:19:22.614Z,87.939453
2019-05-25T02:20:32.153Z,88.043213
2019-05-25T02:21:41.709Z,87.731934
2019-05-25T02:22:51.237Z,88.043213
2019-05-25T02:24:00.803Z,87.731934
2019-05-25T02:25:17.452Z,87.939453
2019-05-25T02:26:20.804Z,88.140869
2019-05-25T02:27:30.322Z,88.140869
2019-05-25T02:28:39.847Z,88.244629
2019-05-25T02:29:49.363Z,87.634277
2019-05-25T02:30:58.954Z,87.634277
2019-05-25T02:32:08.538Z,87.731934
2019-05-25T02:33:18.069Z,88.043213
2019-05-25T02:34:27.576Z,87.634277
2019-05-25T02:35:37.099Z,87.530518
2019-05-25T02:36:46.632Z,87.219238
2019-05-25T02:37:56.159Z,87.219238
2019-05-25T02:39:05.790Z,87.017822
2019-05-25T02:40:15.242Z,87.017822
2019-05-25T02:41:24.799Z,87.322998
2019-05-25T02:42:34.336Z,87.322998
2019-05-25T02:43:43.846Z,87.530518
2019-05-25T02:44:53.348Z,87.219238
2019-05-25T02:46:02.905Z,87.121582
2019-05-25T02:47:12.480Z,87.322998
2019-05-25T02:48:21.997Z,87.634277
2019-05-25T02:49:31.528Z,87.530518
2019-05-25T02:50:41.055Z,87.634277
2019-05-25T02:51:50.609Z,87.530518
2019-05-25T02:53:00.144Z,87.530518
2019-05-25T02:54:09.662Z,87.322998
2019-05-25T02:55:32.808Z,87.322998
2019-05-25T02:56:29.703Z,87.219238
2019-05-25T02:57:39.222Z,86.712646
2019-05-25T02:58:48.735Z,86.505127
2019-05-25T02:59:58.256Z,86.199951
2019-05-25T03:01:08.776Z,85.852051
2019-05-25T03:02:18.352Z,85.644531
2019-05-25T03:03:27.899Z,85.443115
2019-05-25T03:04:37.427Z,85.546875
2019-05-25T03:05:46.968Z,85.339355
2019-05-25T03:06:56.507Z,85.339355
2019-05-25T03:08:06.030Z,85.339355
2019-05-25T03:09:15.566Z,85.03418
2019-05-25T03:10:25.082Z,85.546875
2019-05-25T03:11:34.627Z,84.991455
2019-05-25T03:12:44.141Z,84.790039
2019-05-25T03:13:53.649Z,84.790039
2019-05-25T03:15:03.591Z,84.790039
2019-05-25T03:16:12.759Z,84.58252
2019-05-25T03:17:22.301Z,84.381104
2019-05-25T03:18:31.831Z,84.069824
2019-05-25T03:19:41.340Z,84.173584
2019-05-25T03:20:50.849Z,84.173584
2019-05-25T03:22:00.408Z,84.069824
2019-05-25T03:23:09.921Z,84.069824
2019-05-25T03:24:19.449Z,84.381104
2019-05-25T03:25:28.979Z,84.173584
2019-05-25T03:26:39.543Z,84.173584
2019-05-25T03:27:49.066Z,84.277344
2019-05-25T03:28:58.598Z,84.277344
2019-05-25T03:30:08.114Z,84.277344
2019-05-25T03:31:17.625Z,84.381104
2019-05-25T03:32:27.313Z,84.381104
2019-05-25T03:33:36.829Z,84.277344
2019-05-25T03:34:46.350Z,84.381104
2019-05-25T03:35:55.869Z,84.58252
2019-05-25T03:37:05.442Z,84.47876
2019-05-25T03:38:14.974Z,84.686279
2019-05-25T03:39:24.488Z,84.82666
2019-05-25T03:40:34.039Z,85.03418
2019-05-25T03:41:43.597Z,85.137939
2019-05-25T03:42:53.145Z,85.137939
2019-05-25T03:44:02.663Z,85.546875
2019-05-25T03:45:12.781Z,85.339355
2019-05-25T03:46:22.151Z,85.443115
2019-05-25T03:47:31.757Z,85.644531
2019-05-25T03:48:41.286Z,85.546875
2019-05-25T03:49:50.816Z,85.443115
2019-05-25T03:51:00.361Z,85.546875
2019-05-25T03:52:09.893Z,85.546875
2019-05-25T03:53:19.429Z,85.955811
2019-05-25T03:54:28.950Z,85.791016
2019-05-25T03:55:38.477Z,85.992432
2019-05-25T03:56:48.023Z,85.992432
2019-05-25T03:57:57.541Z,86.096191
2019-05-25T03:59:07.073Z,86.303711
2019-05-25T04:00:16.605Z,85.992432
2019-05-25T04:01:26.129Z,86.303711
2019-05-25T04:02:35.689Z,86.505127
2019-05-25T04:03:45.236Z,86.505127
2019-05-25T04:04:54.771Z,87.219238
2019-05-25T04:06:04.287Z,86.608887
2019-05-25T04:07:13.839Z,86.157227
2019-05-25T04:08:23.361Z,86.053467
2019-05-25T04:09:32.886Z,85.546875
2019-05-25T04:10:42.403Z,85.852051
2019-05-25T04:11:52.043Z,85.443115
2019-05-25T04:13:01.623Z,84.991455
2019-05-25T04:14:11.082Z,85.03418
2019-05-25T04:15:20.615Z,85.03418
2019-05-25T04:16:30.139Z,85.235596
2019-05-25T04:17:39.692Z,85.443115
2019-05-25T04:18:49.207Z,85.137939
2019-05-25T04:19:58.772Z,85.443115
2019-05-25T04:21:08.266Z,85.443115
2019-05-25T04:22:17.826Z,85.339355
2019-05-25T04:23:27.359Z,85.235596
2019-05-25T04:24:36.887Z,85.03418
2019-05-25T04:25:46.400Z,84.93042
2019-05-25T04:26:55.988Z,85.03418
2019-05-25T04:28:05.533Z,84.887695
2019-05-25T04:29:15.151Z,84.887695
2019-05-25T04:30:24.620Z,84.381104
2019-05-25T04:31:34.122Z,84.069824
2019-05-25T04:32:43.690Z,84.069824
2019-05-25T04:33:53.220Z,83.520508
2019-05-25T04:35:02.721Z,83.319092
2019-05-25T04:36:12.263Z,83.111572
2019-05-25T04:37:21.857Z,82.910156
2019-05-25T04:38:31.369Z,82.806396
2019-05-25T04:39:40.887Z,82.769775
2019-05-25T04:40:50.415Z,82.15332
2019-05-25T04:41:59.946Z,82.15332
2019-05-25T04:43:09.520Z,81.744385
2019-05-25T04:44:19.059Z,82.25708
2019-05-25T04:45:28.603Z,81.744385
2019-05-25T04:46:38.118Z,81.604004
2019-05-25T04:47:47.671Z,81.604004
2019-05-25T04:48:57.197Z,81.604004
2019-05-25T04:50:06.726Z,81.604004
2019-05-25T04:51:16.272Z,81.707764
2019-05-25T04:52:25.818Z,81.298828
2019-05-25T04:53:35.338Z,81.604004
2019-05-25T04:54:44.889Z,81.402588
2019-05-25T04:55:54.412Z,80.889893
2019-05-25T04:57:04.292Z,80.688477
2019-05-25T04:58:13.644Z,80.853271
2019-05-25T04:59:23.171Z,81.054688
2019-05-25T05:00:32.695Z,80.853271
2019-05-25T05:01:42.257Z,80.548096
2019-05-25T05:02:51.802Z,80.340576
2019-05-25T05:04:01.342Z,80.340576
2019-05-25T05:05:10.855Z,80.340576
2019-05-25T05:06:20.390Z,80.0354
2019-05-25T05:07:29.930Z,79.522705
2019-05-25T05:08:39.470Z,79.589844
2019-05-25T05:10:01.364Z,80.303955
2019-05-25T05:10:59.504Z,79.083252
2019-05-25T05:12:09.029Z,79.083252
2019-05-25T05:13:18.595Z,79.284668
2019-05-25T05:14:28.102Z,79.040527
2019-05-25T05:15:37.649Z,78.942871
2019-05-25T05:16:47.177Z,78.735352
2019-05-25T05:17:56.752Z,78.533936
2019-05-25T05:19:06.261Z,78.533936
2019-05-25T05:20:15.787Z,79.144287
2019-05-25T05:21:25.296Z,78.80249
2019-05-25T05:22:34.859Z,78.80249
2019-05-25T05:23:44.372Z,77.984619
2019-05-25T05:24:53.902Z,77.581787
2019-05-25T05:26:03.420Z,77.270508
2019-05-25T05:27:12.965Z,77.441406
2019-05-25T05:28:22.501Z,77.545166
2019-05-25T05:29:32.040Z,77.13623
2019-05-25T05:30:41.571Z,76.727295
2019-05-25T05:31:51.083Z,75.976562
2019-05-25T05:33:00.641Z,76.593018
2019-05-25T05:34:10.151Z,75.268555
2019-05-25T05:35:19.689Z,76.99585
2019-05-25T05:36:29.249Z,76.385498
2019-05-25T05:37:38.747Z,75.738525
2019-05-25T05:38:48.264Z,74.926758
2019-05-25T05:39:57.786Z,74.621582
2019-05-25T05:41:07.320Z,75.128174
2019-05-25T05:42:16.825Z,74.584961
2019-05-25T05:43:26.386Z,74.786377
2019-05-25T05:44:35.923Z,74.584961
2019-05-25T05:45:45.434Z,75.091553
2019-05-25T05:46:55.009Z,74.993896
2019-05-25T05:48:04.557Z,74.54834
2019-05-25T05:49:14.076Z,73.535156
2019-05-25T05:50:23.589Z,73.535156
2019-05-25T05:51:33.123Z,74.145508
2019-05-25T05:52:42.663Z,74.414062
2019-05-25T05:53:52.235Z,74.920654
2019-05-25T05:55:01.757Z,73.297119
2019-05-25T05:56:11.272Z,72.888184
2019-05-25T05:57:20.811Z,72.44873
2019-05-25T05:58:30.376Z,73.461914
2019-05-25T05:59:39.905Z,72.344971
2019-05-25T06:00:49.450Z,72.247314
2019-05-25T06:01:58.938Z,72.717285
2019-05-25T06:03:08.597Z,72.106934
2019-05-25T06:04:18.143Z,72.515869
2019-05-25T06:05:27.712Z,72.174072
2019-05-25T06:06:37.193Z,71.466064
2019-05-25T06:07:46.714Z,71.466064
2019-05-25T06:08:56.325Z,71.972656
2019-05-25T06:10:05.798Z,71.331787
2019-05-25T06:11:15.321Z,70.52002
2019-05-25T06:12:24.846Z,71.026611
2019-05-25T06:13:34.435Z,70.281982
2019-05-25T06:14:43.976Z,69.573975
2019-05-25T06:15:55.845Z,70.184326
2019-05-25T06:17:03.044Z,69.641113
2019-05-25T06:18:12.583Z,69.543457
2019-05-25T06:19:22.143Z,69.641113
2019-05-25T06:20:31.690Z,69.30542
2019-05-25T06:21:41.200Z,68.902588
2019-05-25T06:22:50.765Z,69.171143
2019-05-25T06:24:01.304Z,68.664551
2019-05-25T06:25:10.857Z,68.060303
2019-05-25T06:26:20.409Z,67.315674
2019-05-25T06:27:29.945Z,67.926025
2019-05-25T06:28:39.465Z,66.711426
2019-05-25T06:29:49.030Z,67.315674
2019-05-25T06:30:58.561Z,65.869141
2019-05-25T06:32:08.063Z,65.966797
2019-05-25T06:33:17.595Z,66.271973
2019-05-25T06:34:27.152Z,65.966797
2019-05-25T06:35:36.692Z,65.936279
2019-05-25T06:36:46.218Z,65.130615
2019-05-25T06:37:55.729Z,65.50293
2019-05-25T06:39:05.273Z,65.100098
2019-05-25T06:40:14.835Z,65.270996
2019-05-25T06:41:24.462Z,64.459229
2019-05-25T06:42:33.975Z,64.868164
2019-05-25T06:43:43.541Z,64.733887
2019-05-25T06:44:53.125Z,63.726807
2019-05-25T06:46:02.644Z,63.220215
2019-05-25T06:47:12.190Z,62.481689
2019-05-25T06:48:21.724Z,63.696289
2019-05-25T06:49:31.296Z,62.884521
2019-05-25T06:50:41.011Z,62.756348
2019-05-25T06:51:50.535Z,62.1521
2019-05-25T06:53:00.084Z,61.816406
2019-05-25T06:54:09.626Z,61.114502
2019-05-25T06:55:19.239Z,61.315918
2019-05-25T06:56:28.865Z,61.486816
2019-05-25T06:57:42.871Z,61.181641
2019-05-25T06:58:48.995Z,59.143066
2019-05-25T06:59:58.510Z,59.844971
2019-05-25T07:01:08.102Z,60.424805
2019-05-25T07:02:17.607Z,59.283447
2019-05-25T07:03:28.112Z,58.477783
2019-05-25T07:04:37.659Z,59.484863
2019-05-25T07:05:47.196Z,57.678223
2019-05-25T07:06:56.711Z,57.275391
2019-05-25T07:08:06.350Z,58.251953
2019-05-25T07:09:16.898Z,57.244873
2019-05-25T07:10:26.462Z,57.147217
2019-05-25T07:11:35.992Z,56.542969
2019-05-25T07:12:45.518Z,56.970215
2019-05-25T07:13:55.059Z,57.977295
2019-05-25T07:15:04.585Z,58.148193
2019-05-25T07:16:14.145Z,58.02002
2019-05-25T07:17:23.706Z,58.123779
2019-05-25T07:18:35.364Z,57.592773
2019-05-25T07:19:42.843Z,56.384277
2019-05-25T07:20:52.428Z,56.060791
2019-05-25T07:22:01.951Z,55.383301
2019-05-25T07:23:11.569Z,56.359863
2019-05-25T07:24:21.115Z,55.480957
2019-05-25T07:25:30.660Z,55.786133
2019-05-25T07:26:40.377Z,54.754639
2019-05-25T07:27:58.546Z,53.747559
2019-05-25T07:29:00.482Z,54.022217
2019-05-25T07:30:10.004Z,52.618408
2019-05-25T07:31:19.572Z,54.296875
2019-05-25T07:32:29.126Z,53.295898
2019-05-25T07:33:38.663Z,53.295898
2019-05-25T07:34:49.237Z,53.167725
2019-05-25T07:35:58.817Z,52.972412
2019-05-25T07:37:09.376Z,52.368164
2019-05-25T07:38:18.917Z,52.56958
2019-05-25T07:39:28.445Z,52.069092
2019-05-25T07:40:37.966Z,53.424072
2019-05-25T07:41:47.538Z,54.425049
2019-05-25T07:42:57.088Z,53.594971
2019-05-25T07:44:06.616Z,54.296875
2019-05-25T07:45:16.133Z,54.071045
2019-05-25T07:46:25.796Z,53.271484
2019-05-25T07:47:35.365Z,53.4729
2019-05-25T07:48:44.923Z,53.497314
2019-05-25T07:49:55.465Z,53.424072
2019-05-25T07:51:04.986Z,54.125977
2019-05-25T07:52:14.531Z,53.796387
2019-05-25T07:53:24.064Z,53.320312
2019-05-25T07:54:33.602Z,53.320312
2019-05-25T07:55:43.140Z,54.248047
2019-05-25T07:56:52.737Z,53.424072
2019-05-25T07:58:15.532Z,53.619385
2019-05-25T07:59:12.806Z,52.819824
2019-05-25T08:00:22.359Z,52.416992
2019-05-25T08:01:31.866Z,52.01416
2019-05-25T08:02:41.459Z,52.893066
2019-05-25T08:03:51.111Z,53.070068
2019-05-25T08:05:00.532Z,51.513672
2019-05-25T08:06:10.052Z,51.391602
2019-05-25T08:07:19.635Z,49.584961
2019-05-25T08:08:29.164Z,49.963379
2019-05-25T08:09:38.681Z,49.34082
2019-05-25T08:10:48.213Z,49.816895
2019-05-25T08:11:57.741Z,48.596191
2019-05-25T08:13:07.291Z,47.790527
2019-05-25T08:14:16.789Z,47.595215
2019-05-25T08:15:26.306Z,48.168945
2019-05-25T08:16:35.823Z,49.047852
2019-05-25T08:17:45.394Z,46.447754
2019-05-25T08:18:54.898Z,46.447754
2019-05-25T08:20:04.416Z,46.948242
2019-05-25T08:21:13.944Z,46.948242
2019-05-25T08:22:23.514Z,46.148682
2019-05-25T08:23:33.003Z,47.149658
2019-05-25T08:24:42.539Z,47.045898
2019-05-25T08:25:52.054Z,47.027588
2019-05-25T08:27:01.590Z,46.325684
2019-05-25T08:28:11.120Z,47.625732
2019-05-25T08:29:20.627Z,47.576904
2019-05-25T08:30:30.142Z,46.258545
2019-05-25T08:31:39.656Z,44.268799
2019-05-25T08:32:49.202Z,44.488525
2019-05-25T08:33:58.730Z,45.10498
2019-05-25T08:35:08.246Z,45.904541
2019-05-25T08:36:17.752Z,46.105957
2019-05-25T08:37:27.284Z,46.783447
2019-05-25T08:38:36.819Z,47.454834
2019-05-25T08:39:46.331Z,46.514893
2019-05-25T08:40:55.871Z,45.495605
2019-05-25T08:42:05.676Z,44.458008
2019-05-25T08:43:14.934Z,43.743896
2019-05-25T08:44:24.450Z,41.455078
2019-05-25T08:45:33.959Z,40.936279
2019-05-25T08:46:43.498Z,39.16626
2019-05-25T08:47:56.694Z,39.96582
2019-05-25T08:49:02.562Z,40.362549
2019-05-25T08:50:12.075Z,39.96582
2019-05-25T08:51:21.609Z,40.100098
2019-05-25T08:52:31.156Z,40.917969
2019-05-25T08:53:42.213Z,41.815186
2019-05-25T08:54:51.157Z,42.388916
2019-05-25T08:56:01.705Z,41.75415
2019-05-25T08:57:14.120Z,41.339111
2019-05-25T08:58:21.764Z,42.803955
2019-05-25T08:59:31.268Z,41.314697
2019-05-25T09:00:40.802Z,42.407227
2019-05-25T09:01:50.407Z,41.418457
2019-05-25T09:02:59.884Z,40.423584
2019-05-25T09:04:09.411Z,40.203857
2019-05-25T09:05:18.940Z,39.984131
2019-05-25T09:06:28.452Z,39.373779
2019-05-25T09:07:38.018Z,39.471436
2019-05-25T09:08:47.543Z,39.770508
2019-05-25T09:09:57.067Z,38.659668
2019-05-25T09:11:06.587Z,38.641357
2019-05-25T09:12:16.201Z,37.237549
2019-05-25T09:13:25.754Z,36.328125
2019-05-25T09:14:35.285Z,36.938477
2019-05-25T09:15:44.795Z,35.650635
2019-05-25T09:16:54.326Z,35.15625
2019-05-25T09:18:03.897Z,35.15625
2019-05-25T09:19:13.484Z,35.552979
2019-05-25T09:20:22.973Z,36.444092
2019-05-25T09:21:35.360Z,36.956787
2019-05-25T09:22:44.887Z,37.1521
2019-05-25T09:23:54.406Z,37.036133
2019-05-25T09:25:03.964Z,37.634277
2019-05-25T09:26:13.689Z,37.017822
2019-05-25T09:27:23.098Z,36.505127
2019-05-25T09:28:32.641Z,36.639404
2019-05-25T09:29:42.158Z,38.226318
2019-05-25T09:30:51.694Z,37.82959
2019-05-25T09:32:01.250Z,37.548828
2019-05-25T09:33:11.787Z,38.543701
2019-05-25T09:34:21.309Z,39.453125
2019-05-25T09:35:30.826Z,38.775635
2019-05-25T09:36:40.356Z,40.362549
2019-05-25T09:37:49.901Z,39.471436
2019-05-25T09:38:59.587Z,38.897705
2019-05-25T09:40:09.076Z,39.788818
2019-05-25T09:41:18.607Z,39.190674
2019-05-25T09:42:28.309Z,40.106201
2019-05-25T09:43:37.826Z,39.886475
2019-05-25T09:44:47.358Z,40.06958
2019-05-25T09:45:56.872Z,39.172363
2019-05-25T09:47:07.389Z,39.154053
2019-05-25T09:48:16.935Z,40.045166
2019-05-25T09:49:26.454Z,39.471436
2019-05-25T09:50:36.008Z,38.677979
2019-05-25T09:51:48.472Z,38.598633
2019-05-25T09:52:55.138Z,38.317871
2019-05-25T09:54:04.676Z,39.208984
2019-05-25T09:55:14.223Z,40.618896
2019-05-25T09:56:23.760Z,40.820312
2019-05-25T09:57:33.350Z,40.539551
2019-05-25T09:58:43.927Z,41.656494
2019-05-25T09:59:53.446Z,42.230225
2019-05-25T10:01:02.971Z,41.63208
2019-05-25T10:02:12.497Z,41.516113
2019-05-25T10:03:22.072Z,42.211914
2019-05-25T10:04:31.631Z,41.790771
2019-05-25T10:05:41.201Z,41.418457
2019-05-25T10:06:50.765Z,40.802002
2019-05-25T10:08:00.375Z,40.698242
2019-05-25T10:09:09.929Z,39.489746
2019-05-25T10:10:19.509Z,41.156006
2019-05-25T10:11:29.132Z,39.294434
2019-05-25T10:12:38.621Z,41.75415
2019-05-25T10:13:48.182Z,40.167236
2019-05-25T10:14:57.698Z,40.380859
2019-05-25T10:16:07.233Z,41.455078
2019-05-25T10:17:16.766Z,39.276123
2019-05-25T10:18:26.446Z,39.172363
2019-05-25T10:19:35.966Z,39.868164
2019-05-25T10:20:45.556Z,39.672852
2019-05-25T10:21:58.685Z,40.466309
2019-05-25T10:23:04.617Z,39.672852
2019-05-25T10:24:14.161Z,39.294434
2019-05-25T10:25:23.684Z,39.373779
2019-05-25T10:26:33.229Z,39.569092
2019-05-25T10:27:43.719Z,39.672852
2019-05-25T10:28:53.314Z,39.172363
2019-05-25T10:30:02.833Z,39.074707
2019-05-25T10:31:12.415Z,38.580322
2019-05-25T10:32:21.879Z,38.977051
2019-05-25T10:33:31.666Z,39.154053
2019-05-25T10:34:41.011Z,40.087891
2019-05-25T10:35:50.524Z,41.497803
2019-05-25T10:37:00.047Z,42.1875
2019-05-25T10:38:09.575Z,42.388916
2019-05-25T10:39:19.154Z,40.50293
2019-05-25T10:40:29.687Z,41.815186
2019-05-25T10:41:39.202Z,41.137695
2019-05-25T10:42:48.732Z,42.211914
2019-05-25T10:43:58.281Z,41.73584
2019-05-25T10:45:07.827Z,41.339111
2019-05-25T10:46:17.355Z,42.010498
2019-05-25T10:47:26.881Z,42.608643
2019-05-25T10:48:36.417Z,41.815186
2019-05-25T10:49:45.972Z,41.119385
2019-05-25T10:50:55.505Z,40.820312
2019-05-25T10:52:05.030Z,40.899658
2019-05-25T10:53:14.573Z,41.595459
2019-05-25T10:54:24.076Z,40.380859
2019-05-25T10:55:33.633Z,39.886475
2019-05-25T10:56:43.162Z,40.582275
2019-05-25T10:57:52.678Z,40.484619
2019-05-25T10:59:02.215Z,39.587402
2019-05-25T11:00:11.773Z,40.863037
2019-05-25T11:01:21.293Z,39.96582
2019-05-25T11:02:30.830Z,39.752197
2019-05-25T11:03:40.354Z,40.264893
2019-05-25T11:04:49.943Z,38.183594
2019-05-25T11:05:59.473Z,39.672852
2019-05-25T11:07:09.068Z,39.39209
2019-05-25T11:08:18.596Z,39.868164
2019-05-25T11:09:28.088Z,38.977051
2019-05-25T11:10:37.635Z,38.598633
2019-05-25T11:11:47.175Z,38.995361
2019-05-25T11:12:56.709Z,39.868164
2019-05-25T11:14:06.231Z,39.569092
2019-05-25T11:15:15.793Z,36.61499
2019-05-25T11:16:25.416Z,37.341309
2019-05-25T11:17:35.028Z,37.359619
2019-05-25T11:18:44.574Z,39.648438
2019-05-25T11:19:54.182Z,39.349365
2019-05-25T11:21:03.779Z,37.359619
2019-05-25T11:22:13.336Z,38.05542
2019-05-25T11:23:22.871Z,37.957764
2019-05-25T11:24:32.408Z,39.050293
2019-05-25T11:25:42.052Z,37.658691
2019-05-25T11:26:51.587Z,38.73291
2019-05-25T11:28:01.240Z,37.701416
2019-05-25T11:29:11.760Z,37.408447
2019-05-25T11:30:21.347Z,38.995361
2019-05-25T11:31:31.004Z,38.104248
2019-05-25T11:32:40.458Z,38.262939
2019-05-25T11:33:49.992Z,38.262939
2019-05-25T11:34:59.611Z,37.548828
2019-05-25T11:36:09.314Z,34.973145
2019-05-25T11:37:18.920Z,34.796143
2019-05-25T11:38:28.569Z,36.279297
2019-05-25T11:39:38.050Z,37.072754
2019-05-25T11:40:47.661Z,37.963867
2019-05-25T11:41:57.204Z,36.279297
2019-05-25T11:43:06.748Z,35.766602
2019-05-25T11:44:16.261Z,35.253906
2019-05-25T11:45:25.889Z,35.632324
2019-05-25T11:46:35.379Z,35.321045
2019-05-25T11:47:44.919Z,36.38916
2019-05-25T11:48:54.437Z,34.527588
2019-05-25T11:50:04.011Z,34.643555
2019-05-25T11:51:13.591Z,35.83374
2019-05-25T11:52:23.096Z,34.448242
2019-05-25T11:53:32.663Z,35.253906
2019-05-25T11:54:42.182Z,35.968018
2019-05-25T11:55:51.789Z,37.335205
2019-05-25T11:57:01.378Z,34.777832
2019-05-25T11:58:10.900Z,35.668945
2019-05-25T11:59:20.466Z,35.949707
2019-05-25T12:00:30.022Z,37.530518
2019-05-25T12:01:39.566Z,37.731934
2019-05-25T12:02:49.080Z,36.743164
2019-05-25T12:03:58.616Z,34.362793
2019-05-25T12:05:08.122Z,34.576416
2019-05-25T12:06:17.699Z,35.687256
2019-05-25T12:07:27.223Z,36.065674
2019-05-25T12:08:36.738Z,37.072754
2019-05-25T12:09:46.261Z,35.48584
2019-05-25T12:10:56.437Z,37.072754
2019-05-25T12:12:06.019Z,37.768555
2019-05-25T12:13:15.548Z,36.676025
2019-05-25T12:14:25.065Z,38.580322
2019-05-25T12:15:34.603Z,37.29248
2019-05-25T12:16:44.178Z,38.500977
2019-05-25T12:17:53.765Z,36.791992
2019-05-25T12:19:03.289Z,37.585449
2019-05-25T12:20:12.827Z,37.17041
2019-05-25T12:21:22.392Z,37.451172
2019-05-25T12:22:31.913Z,35.174561
2019-05-25T12:23:41.420Z,36.773682
2019-05-25T12:24:50.966Z,36.083984
2019-05-25T12:26:00.535Z,37.60376
2019-05-25T12:27:10.120Z,37.042236
2019-05-25T12:28:19.645Z,39.16626
2019-05-25T12:29:29.183Z,40.960693
2019-05-25T12:30:41.042Z,41.156006
2019-05-25T12:31:48.352Z,41.455078
2019-05-25T12:32:58.938Z,41.656494
2019-05-25T12:34:08.523Z,40.979004
2019-05-25T12:35:18.121Z,42.150879
2019-05-25T12:36:27.680Z,40.936279
2019-05-25T12:37:37.226Z,40.856934
2019-05-25T12:38:46.784Z,41.253662
2019-05-25T12:39:56.388Z,40.936279
2019-05-25T12:41:05.911Z,41.235352
2019-05-25T12:42:15.500Z,40.722656
2019-05-25T12:43:25.071Z,40.802002
2019-05-25T12:44:34.671Z,41.418457
2019-05-25T12:45:44.187Z,40.740967
2019-05-25T12:46:53.804Z,41.931152
2019-05-25T12:48:03.337Z,41.73584
2019-05-25T12:49:12.878Z,41.711426
2019-05-25T12:50:22.440Z,40.50293
2019-05-25T12:51:31.960Z,40.203857
2019-05-25T12:52:41.607Z,40.203857
2019-05-25T12:53:51.126Z,40.106201
2019-05-25T12:54:59.687Z,40.600586
2019-05-25T12:56:09.236Z,40.405273
2019-05-25T12:57:18.801Z,40.679932
2019-05-25T12:58:29.344Z,40.759277
2019-05-25T12:59:38.908Z,39.752197
2019-05-25T13:00:55.882Z,40.246582
2019-05-25T13:01:59.094Z,38.659668
2019-05-25T13:03:10.879Z,38.977051
2019-05-25T13:04:18.240Z,39.276123
2019-05-25T13:05:33.960Z,39.868164
2019-05-25T13:06:38.324Z,39.868164
2019-05-25T13:07:47.957Z,38.775635
2019-05-25T13:08:57.520Z,39.672852
2019-05-25T13:10:07.139Z,41.05835
2019-05-25T13:11:16.689Z,37.963867
2019-05-25T13:12:26.238Z,38.323975
2019-05-25T13:13:35.762Z,38.702393
2019-05-25T13:14:45.293Z,37.634277
2019-05-25T13:15:54.933Z,38.128662